createdAt,value
2022-11-26T00:00:35.834Z,19.78
2022-11-26T00:01:35.840Z,19.88
2022-11-26T00:02:35.953Z,19.88
2022-11-26T00:03:35.949Z,19.98
2022-11-26T00:04:36.226Z,19.78
2022-11-26T00:05:35.839Z,19.88
2022-11-26T00:06:35.831Z,19.89
2022-11-26T00:07:35.876Z,19.78
2022-11-26T00:08:35.852Z,19.78
2022-11-26T00:09:35.837Z,19.78
2022-11-26T00:10:35.831Z,19.98
2022-11-26T00:11:35.836Z,19.68
2022-11-26T00:12:35.829Z,19.68
2022-11-26T00:13:35.849Z,19.78
2022-11-26T00:14:36.108Z,19.68
2022-11-26T00:15:35.837Z,19.68
2022-11-26T00:16:35.981Z,19.98
2022-11-26T00:17:35.834Z,19.88
2022-11-26T00:18:35.828Z,19.59
2022-11-26T00:19:35.834Z,19.78
2022-11-26T00:20:35.833Z,19.68
2022-11-26T00:21:35.835Z,19.68
2022-11-26T00:22:35.826Z,19.68
2022-11-26T00:23:35.831Z,19.68
2022-11-26T00:24:36.248Z,19.68
2022-11-26T00:25:35.830Z,19.68
2022-11-26T00:26:35.824Z,19.68
2022-11-26T00:27:35.829Z,19.68
2022-11-26T00:28:35.834Z,19.59
2022-11-26T00:29:35.829Z,19.68
2022-11-26T00:30:35.822Z,19.68
2022-11-26T00:31:35.880Z,19.68
2022-11-26T00:32:35.827Z,19.68
2022-11-26T00:33:35.828Z,19.68
2022-11-26T00:34:36.137Z,19.78
2022-11-26T00:35:35.826Z,19.68
2022-11-26T00:36:35.825Z,19.68
2022-11-26T00:37:35.830Z,19.68
2022-11-26T00:38:35.819Z,19.68
2022-11-26T00:39:35.826Z,19.68
2022-11-26T00:40:35.844Z,19.68
2022-11-26T00:41:35.826Z,19.78
2022-11-26T00:42:35.820Z,19.68
2022-11-26T00:43:35.825Z,19.78
2022-11-26T00:44:36.157Z,19.68
2022-11-26T00:45:35.861Z,19.68
2022-11-26T00:46:35.816Z,19.68
2022-11-26T00:47:35.823Z,19.68
2022-11-26T00:48:35.814Z,19.68
2022-11-26T00:49:35.821Z,19.68
2022-11-26T00:50:35.814Z,19.78
2022-11-26T00:51:35.822Z,19.68
2022-11-26T00:52:35.836Z,19.78
2022-11-26T00:53:35.828Z,19.78
2022-11-26T00:54:36.193Z,19.68
2022-11-26T00:55:35.845Z,19.68
2022-11-26T00:56:38.123Z,19.78
2022-11-26T00:57:35.820Z,19.68
2022-11-26T00:58:35.812Z,19.59
2022-11-26T00:59:35.817Z,19.68
2022-11-26T01:00:35.946Z,19.78
2022-11-26T01:01:35.909Z,19.78
2022-11-26T01:02:35.894Z,19.78
2022-11-26T01:03:35.816Z,19.78
2022-11-26T01:04:36.334Z,19.59
2022-11-26T01:05:35.815Z,19.78
2022-11-26T01:06:35.808Z,19.59
2022-11-26T01:07:35.878Z,19.68
2022-11-26T01:08:35.814Z,19.78
2022-11-26T01:09:35.814Z,19.68
2022-11-26T01:10:35.809Z,19.68
2022-11-26T01:11:35.814Z,19.78
2022-11-26T01:12:35.827Z,19.78
2022-11-26T01:13:35.815Z,19.78
2022-11-26T01:14:36.055Z,19.78
2022-11-26T01:15:35.811Z,19.59
2022-11-26T01:16:35.975Z,19.68
2022-11-26T01:17:35.813Z,19.78
2022-11-26T01:18:35.805Z,19.68
2022-11-26T01:19:35.811Z,19.59
2022-11-26T01:20:35.903Z,19.59
2022-11-26T01:21:35.810Z,19.68
2022-11-26T01:22:35.803Z,19.68
2022-11-26T01:23:35.808Z,19.68
2022-11-26T01:24:36.162Z,19.68
2022-11-26T01:25:35.810Z,19.59
2022-11-26T01:26:35.801Z,19.59
2022-11-26T01:27:35.808Z,19.60
2022-11-26T01:28:35.822Z,19.60
2022-11-26T01:29:35.834Z,19.68
2022-11-26T01:30:35.807Z,19.68
2022-11-26T01:31:35.933Z,19.68
2022-11-26T01:32:35.798Z,19.68
2022-11-26T01:33:35.809Z,19.68
2022-11-26T01:34:36.028Z,19.68
2022-11-26T01:35:35.805Z,19.59
2022-11-26T01:36:35.797Z,19.68
2022-11-26T01:37:35.804Z,19.68
2022-11-26T01:38:35.798Z,19.59
2022-11-26T01:39:35.802Z,19.68
2022-11-26T01:40:35.797Z,19.68
2022-11-26T01:41:35.801Z,19.59
2022-11-26T01:42:35.795Z,19.60
2022-11-26T01:43:35.802Z,19.68
2022-11-26T01:44:36.015Z,19.49
2022-11-26T01:45:35.888Z,19.49
2022-11-26T01:46:35.792Z,19.59
2022-11-26T01:47:35.799Z,19.49
2022-11-26T01:48:35.792Z,19.68
2022-11-26T01:49:35.807Z,19.49
2022-11-26T01:50:35.803Z,19.68
2022-11-26T01:51:35.801Z,19.49
2022-11-26T01:52:35.795Z,19.59
2022-11-26T01:53:35.799Z,19.59
2022-11-26T01:54:36.081Z,19.49
2022-11-26T01:55:35.804Z,19.40
2022-11-26T01:56:35.793Z,19.60
2022-11-26T01:57:35.805Z,19.49
2022-11-26T01:58:39.861Z,19.40
2022-11-26T01:59:35.800Z,19.40
2022-11-26T02:00:35.821Z,19.50
2022-11-26T02:01:35.905Z,19.60
2022-11-26T02:02:35.861Z,19.49
2022-11-26T02:03:35.793Z,19.49
2022-11-26T02:04:36.310Z,19.50
2022-11-26T02:05:35.794Z,19.59
2022-11-26T02:06:35.786Z,19.59
2022-11-26T02:07:35.866Z,19.59
2022-11-26T02:08:35.788Z,19.59
2022-11-26T02:09:35.795Z,19.59
2022-11-26T02:10:35.788Z,19.49
2022-11-26T02:11:35.805Z,19.40
2022-11-26T02:12:35.783Z,19.40
2022-11-26T02:13:35.790Z,19.49
2022-11-26T02:14:36.078Z,19.49
2022-11-26T02:15:35.790Z,19.59
2022-11-26T02:16:35.837Z,19.30
2022-11-26T02:17:35.790Z,19.49
2022-11-26T02:18:35.782Z,19.49
2022-11-26T02:19:35.788Z,19.40
2022-11-26T02:20:35.791Z,19.49
2022-11-26T02:21:35.787Z,19.49
2022-11-26T02:22:35.780Z,19.40
2022-11-26T02:23:35.786Z,19.40
2022-11-26T02:24:36.089Z,19.40
2022-11-26T02:25:35.793Z,19.49
2022-11-26T02:26:35.780Z,19.40
2022-11-26T02:27:35.785Z,19.49
2022-11-26T02:28:35.780Z,19.49
2022-11-26T02:29:35.786Z,19.49
2022-11-26T02:30:35.778Z,19.49
2022-11-26T02:31:35.852Z,19.30
2022-11-26T02:32:35.802Z,19.59
2022-11-26T02:33:35.790Z,19.59
2022-11-26T02:34:37.700Z,19.40
2022-11-26T02:35:35.783Z,19.49
2022-11-26T02:36:35.783Z,19.49
2022-11-26T02:37:35.783Z,19.49
2022-11-26T02:38:35.773Z,19.40
2022-11-26T02:39:35.780Z,19.40
2022-11-26T02:40:35.774Z,19.40
2022-11-26T02:41:35.779Z,19.49
2022-11-26T02:42:35.775Z,19.49
2022-11-26T02:43:35.779Z,19.49
2022-11-26T02:44:35.998Z,19.49
2022-11-26T02:45:35.842Z,19.40
2022-11-26T02:46:35.772Z,19.49
2022-11-26T02:47:35.777Z,19.40
2022-11-26T02:48:35.800Z,19.40
2022-11-26T02:49:35.777Z,19.49
2022-11-26T02:50:35.769Z,19.49
2022-11-26T02:51:35.779Z,19.40
2022-11-26T02:52:35.769Z,19.59
2022-11-26T02:53:35.776Z,19.49
2022-11-26T02:54:36.039Z,19.49
2022-11-26T02:55:35.776Z,19.49
2022-11-26T02:56:35.767Z,19.40
2022-11-26T02:57:35.778Z,19.49
2022-11-26T02:58:35.768Z,19.40
2022-11-26T02:59:35.771Z,19.49
2022-11-26T03:00:35.767Z,19.49
2022-11-26T03:01:35.817Z,19.40
2022-11-26T03:02:35.771Z,19.49
2022-11-26T03:03:35.901Z,19.49
2022-11-26T03:04:36.121Z,19.50
2022-11-26T03:05:35.771Z,19.40
2022-11-26T03:06:35.762Z,19.40
2022-11-26T03:07:35.875Z,19.50
2022-11-26T03:08:35.767Z,19.50
2022-11-26T03:09:35.769Z,19.40
2022-11-26T03:10:35.764Z,19.49
2022-11-26T03:11:35.823Z,19.49
2022-11-26T03:12:35.760Z,19.49
2022-11-26T03:13:35.768Z,19.50
2022-11-26T03:14:36.008Z,19.40
2022-11-26T03:15:35.766Z,19.40
2022-11-26T03:16:35.781Z,19.30
2022-11-26T03:17:35.765Z,19.31
2022-11-26T03:18:35.758Z,19.30
2022-11-26T03:19:35.765Z,19.30
2022-11-26T03:20:35.782Z,19.20
2022-11-26T03:21:35.767Z,19.10
2022-11-26T03:22:35.757Z,19.30
2022-11-26T03:23:35.764Z,19.30
2022-11-26T03:24:35.984Z,19.49
2022-11-26T03:25:35.765Z,19.30
2022-11-26T03:26:35.758Z,19.40
2022-11-26T03:27:35.762Z,19.30
2022-11-26T03:28:35.756Z,19.31
2022-11-26T03:29:35.763Z,19.30
2022-11-26T03:30:35.755Z,19.30
2022-11-26T03:31:35.816Z,19.01
2022-11-26T03:32:35.754Z,19.20
2022-11-26T03:33:35.762Z,19.30
2022-11-26T03:34:36.045Z,19.20
2022-11-26T03:35:35.758Z,19.02
2022-11-26T03:36:35.776Z,18.92
2022-11-26T03:37:35.759Z,19.20
2022-11-26T03:38:35.752Z,19.30
2022-11-26T03:39:35.757Z,18.91
2022-11-26T03:40:35.750Z,19.20
2022-11-26T03:41:35.758Z,19.01
2022-11-26T03:42:35.750Z,19.20
2022-11-26T03:43:35.756Z,19.01
2022-11-26T03:44:35.988Z,19.01
2022-11-26T03:45:35.793Z,18.92
2022-11-26T03:46:35.749Z,19.02
2022-11-26T03:47:35.758Z,18.92
2022-11-26T03:48:35.746Z,18.91
2022-11-26T03:49:35.758Z,18.91
2022-11-26T03:50:35.747Z,19.01
2022-11-26T03:51:35.753Z,18.91
2022-11-26T03:52:35.769Z,19.01
2022-11-26T03:53:35.754Z,18.91
2022-11-26T03:54:36.018Z,18.91
2022-11-26T03:55:35.752Z,18.91
2022-11-26T03:56:35.743Z,18.91
2022-11-26T03:57:35.752Z,18.91
2022-11-26T03:58:35.745Z,19.01
2022-11-26T03:59:35.754Z,18.91
2022-11-26T04:00:35.743Z,19.10
2022-11-26T04:01:35.875Z,19.01
2022-11-26T04:02:35.791Z,19.01
2022-11-26T04:03:35.750Z,19.10
2022-11-26T04:04:36.129Z,19.01
2022-11-26T04:05:35.750Z,19.01
2022-11-26T04:06:35.741Z,19.01
2022-11-26T04:07:35.793Z,19.01
2022-11-26T04:08:35.762Z,18.91
2022-11-26T04:09:35.746Z,19.10
2022-11-26T04:10:35.739Z,19.01
2022-11-26T04:11:35.745Z,19.10
2022-11-26T04:12:35.738Z,19.01
2022-11-26T04:13:35.747Z,19.01
2022-11-26T04:14:35.946Z,19.01
2022-11-26T04:15:35.739Z,19.11
2022-11-26T04:16:35.811Z,18.91
2022-11-26T04:17:35.740Z,19.01
2022-11-26T04:18:35.745Z,19.10
2022-11-26T04:19:35.736Z,19.01
2022-11-26T04:20:35.743Z,18.91
2022-11-26T04:21:35.734Z,19.20
2022-11-26T04:22:35.743Z,19.01
2022-11-26T04:23:35.736Z,19.10
2022-11-26T04:24:36.227Z,19.10
2022-11-26T04:25:35.734Z,19.10
2022-11-26T04:26:35.740Z,19.01
2022-11-26T04:27:35.732Z,19.01
2022-11-26T04:28:35.741Z,19.20
2022-11-26T04:29:35.732Z,19.49
2022-11-26T04:30:35.740Z,19.10
2022-11-26T04:31:35.820Z,19.10
2022-11-26T04:32:35.738Z,19.01
2022-11-26T04:33:35.730Z,19.01
2022-11-26T04:34:36.054Z,19.10
2022-11-26T04:35:35.729Z,19.20
2022-11-26T04:36:35.737Z,19.10
2022-11-26T04:37:35.728Z,19.20
2022-11-26T04:38:35.739Z,19.20
2022-11-26T04:39:35.732Z,19.10
2022-11-26T04:40:35.758Z,19.10
2022-11-26T04:41:35.727Z,19.10
2022-11-26T04:42:35.734Z,19.10
2022-11-26T04:43:35.728Z,19.10
2022-11-26T04:44:35.947Z,19.01
2022-11-26T04:45:35.769Z,19.20
2022-11-26T04:46:35.733Z,19.10
2022-11-26T04:47:40.056Z,19.10
2022-11-26T04:48:35.732Z,19.10
2022-11-26T04:49:35.725Z,19.40
2022-11-26T04:50:35.732Z,19.20
2022-11-26T04:51:35.726Z,19.30
2022-11-26T04:52:35.730Z,19.20
2022-11-26T04:53:35.733Z,19.20
2022-11-26T04:54:36.017Z,19.30
2022-11-26T04:55:35.722Z,19.20
2022-11-26T04:56:35.752Z,19.10
2022-11-26T04:57:35.721Z,19.30
2022-11-26T04:58:35.728Z,19.20
2022-11-26T04:59:35.723Z,19.30
2022-11-26T05:00:35.729Z,19.20
2022-11-26T05:01:35.760Z,18.91
2022-11-26T05:02:35.809Z,19.10
2022-11-26T05:03:35.719Z,19.10
2022-11-26T05:04:35.877Z,18.91
2022-11-26T05:05:35.720Z,19.10
2022-11-26T05:06:35.726Z,19.10
2022-11-26T05:07:35.755Z,18.91
2022-11-26T05:08:35.727Z,18.81
2022-11-26T05:09:35.717Z,18.81
2022-11-26T05:10:35.724Z,18.91
2022-11-26T05:11:35.719Z,18.81
2022-11-26T05:12:35.750Z,19.10
2022-11-26T05:13:35.715Z,18.81
2022-11-26T05:14:36.031Z,18.81
2022-11-26T05:15:35.714Z,18.91
2022-11-26T05:16:35.791Z,18.81
2022-11-26T05:17:35.713Z,18.91
2022-11-26T05:18:35.721Z,19.01
2022-11-26T05:19:35.712Z,18.91
2022-11-26T05:20:35.871Z,18.91
2022-11-26T05:21:35.713Z,18.81
2022-11-26T05:22:35.722Z,18.91
2022-11-26T05:23:35.712Z,19.01
2022-11-26T05:24:35.961Z,18.91
2022-11-26T05:25:35.711Z,18.91
2022-11-26T05:26:35.717Z,19.01
2022-11-26T05:27:35.709Z,19.01
2022-11-26T05:28:35.737Z,19.01
2022-11-26T05:29:35.708Z,18.81
2022-11-26T05:30:35.716Z,19.01
2022-11-26T05:31:35.765Z,18.91
2022-11-26T05:32:35.717Z,18.91
2022-11-26T05:33:35.708Z,18.91
2022-11-26T05:34:35.896Z,19.01
2022-11-26T05:35:35.706Z,18.91
2022-11-26T05:36:35.716Z,19.01
2022-11-26T05:37:35.706Z,18.91
2022-11-26T05:38:35.715Z,19.01
2022-11-26T05:39:35.704Z,19.01
2022-11-26T05:40:35.712Z,19.01
2022-11-26T05:41:35.704Z,19.01
2022-11-26T05:42:35.712Z,19.01
2022-11-26T05:43:35.703Z,19.01
2022-11-26T05:44:36.040Z,18.81
2022-11-26T05:45:35.750Z,18.81
2022-11-26T05:46:35.710Z,18.81
2022-11-26T05:47:35.701Z,18.71
2022-11-26T05:48:35.708Z,19.02
2022-11-26T05:49:35.704Z,18.81
2022-11-26T05:50:35.710Z,18.81
2022-11-26T05:51:35.699Z,18.92
2022-11-26T05:52:35.707Z,18.81
2022-11-26T05:53:35.700Z,18.71
2022-11-26T05:54:36.004Z,18.91
2022-11-26T05:55:35.698Z,18.81
2022-11-26T05:56:35.705Z,18.81
2022-11-26T05:57:35.699Z,18.91
2022-11-26T05:58:35.706Z,18.91
2022-11-26T05:59:35.699Z,18.91
2022-11-26T06:00:35.730Z,18.91
2022-11-26T06:01:35.699Z,18.71
2022-11-26T06:02:35.849Z,18.91
2022-11-26T06:03:35.786Z,18.91
2022-11-26T06:04:35.731Z,18.91
2022-11-26T06:05:35.694Z,18.91
2022-11-26T06:06:35.702Z,18.91
2022-11-26T06:07:38.402Z,18.81
2022-11-26T06:08:35.703Z,18.81
2022-11-26T06:09:36.103Z,18.81
2022-11-26T06:10:35.699Z,18.81
2022-11-26T06:11:35.692Z,18.71
2022-11-26T06:12:35.701Z,18.82
2022-11-26T06:13:35.695Z,18.71
2022-11-26T06:14:39.113Z,18.71
2022-11-26T06:15:35.693Z,18.81
2022-11-26T06:16:35.784Z,18.71
2022-11-26T06:17:35.689Z,18.81
2022-11-26T06:18:35.698Z,18.71
2022-11-26T06:19:35.690Z,18.71
2022-11-26T06:20:35.846Z,18.71
2022-11-26T06:21:35.689Z,18.82
2022-11-26T06:22:35.696Z,18.71
2022-11-26T06:23:35.690Z,18.81
2022-11-26T06:24:36.043Z,18.71
2022-11-26T06:25:35.688Z,18.71
2022-11-26T06:26:35.695Z,18.73
2022-11-26T06:27:35.688Z,18.81
2022-11-26T06:28:35.698Z,18.81
2022-11-26T06:29:35.687Z,18.82
2022-11-26T06:30:35.693Z,18.62
2022-11-26T06:31:35.715Z,18.71
2022-11-26T06:32:35.714Z,18.71
2022-11-26T06:33:35.684Z,18.81
2022-11-26T06:34:35.849Z,18.81
2022-11-26T06:35:35.684Z,18.81
2022-11-26T06:36:35.690Z,18.81
2022-11-26T06:37:35.682Z,18.81
2022-11-26T06:38:35.690Z,18.71
2022-11-26T06:39:35.683Z,18.71
2022-11-26T06:40:35.688Z,18.82
2022-11-26T06:41:35.680Z,18.71
2022-11-26T06:42:35.687Z,18.81
2022-11-26T06:43:35.680Z,18.82
2022-11-26T06:44:35.714Z,18.71
2022-11-26T06:45:35.791Z,18.82
2022-11-26T06:46:35.686Z,18.71
2022-11-26T06:47:35.678Z,18.71
2022-11-26T06:48:35.710Z,18.81
2022-11-26T06:49:35.678Z,18.62
2022-11-26T06:50:35.684Z,18.71
2022-11-26T06:51:35.676Z,18.71
2022-11-26T06:52:35.684Z,18.71
2022-11-26T06:53:35.676Z,18.71
2022-11-26T06:54:35.811Z,18.81
2022-11-26T06:55:35.675Z,18.71
2022-11-26T06:56:35.699Z,18.81
2022-11-26T06:57:35.677Z,18.81
2022-11-26T06:58:35.681Z,18.73
2022-11-26T06:59:36.695Z,18.71
2022-11-26T07:00:35.680Z,18.81
2022-11-26T07:01:35.798Z,18.81
2022-11-26T07:02:35.763Z,18.71
2022-11-26T07:03:35.682Z,18.81
2022-11-26T07:04:35.838Z,18.73
2022-11-26T07:05:35.672Z,18.71
2022-11-26T07:06:35.681Z,18.73
2022-11-26T07:07:35.722Z,18.71
2022-11-26T07:08:35.678Z,18.81
2022-11-26T07:09:35.669Z,18.71
2022-11-26T07:10:35.681Z,18.71
2022-11-26T07:11:35.671Z,18.73
2022-11-26T07:12:35.684Z,18.71
2022-11-26T07:13:35.668Z,18.71
2022-11-26T07:14:35.977Z,18.71
2022-11-26T07:15:35.668Z,18.91
2022-11-26T07:16:35.766Z,18.81
2022-11-26T07:17:35.666Z,18.81
2022-11-26T07:18:35.674Z,18.81
2022-11-26T07:19:35.665Z,18.81
2022-11-26T07:20:35.695Z,18.81
2022-11-26T07:21:35.665Z,18.81
2022-11-26T07:22:35.673Z,18.81
2022-11-26T07:23:35.665Z,18.82
2022-11-26T07:24:35.726Z,18.81
2022-11-26T07:25:35.663Z,18.81
2022-11-26T07:26:35.671Z,18.81
2022-11-26T07:27:35.662Z,18.91
2022-11-26T07:28:35.672Z,18.81
2022-11-26T07:29:35.662Z,18.92
2022-11-26T07:30:35.669Z,18.82
2022-11-26T07:31:35.716Z,18.91
2022-11-26T07:32:35.668Z,18.91
2022-11-26T07:33:35.661Z,18.71
2022-11-26T07:34:35.864Z,18.73
2022-11-26T07:35:35.664Z,18.81
2022-11-26T07:36:35.687Z,18.81
2022-11-26T07:37:35.660Z,18.81
2022-11-26T07:38:35.666Z,18.81
2022-11-26T07:39:35.657Z,18.81
2022-11-26T07:40:35.666Z,18.91
2022-11-26T07:41:35.656Z,18.73
2022-11-26T07:42:35.665Z,18.81
2022-11-26T07:43:35.659Z,18.91
2022-11-26T07:44:35.908Z,18.91
2022-11-26T07:45:35.655Z,18.91
2022-11-26T07:46:35.744Z,18.81
2022-11-26T07:47:35.655Z,18.82
2022-11-26T07:48:35.666Z,18.81
2022-11-26T07:49:35.658Z,18.92
2022-11-26T07:50:35.663Z,18.92
2022-11-26T07:51:35.653Z,18.92
2022-11-26T07:52:35.684Z,18.81
2022-11-26T07:53:35.653Z,18.92
2022-11-26T07:54:35.935Z,18.82
2022-11-26T07:55:35.654Z,18.82
2022-11-26T07:56:35.659Z,18.92
2022-11-26T07:57:35.653Z,18.91
2022-11-26T07:58:35.667Z,18.91
2022-11-26T07:59:35.665Z,18.82
2022-11-26T08:00:35.664Z,18.91
2022-11-26T08:01:35.687Z,18.81
2022-11-26T08:02:35.714Z,18.81
2022-11-26T08:03:35.648Z,18.82
2022-11-26T08:04:35.861Z,18.91
2022-11-26T08:05:35.657Z,18.71
2022-11-26T08:06:35.660Z,18.91
2022-11-26T08:07:35.697Z,18.91
2022-11-26T08:08:35.679Z,18.82
2022-11-26T08:09:35.650Z,18.73
2022-11-26T08:10:35.654Z,18.91
2022-11-26T08:11:35.646Z,18.73
2022-11-26T08:12:35.653Z,18.81
2022-11-26T08:13:35.645Z,18.92
2022-11-26T08:14:35.929Z,18.82
2022-11-26T08:15:35.645Z,18.92
2022-11-26T08:16:35.745Z,18.91
2022-11-26T08:17:35.652Z,18.91
2022-11-26T08:18:35.652Z,18.81
2022-11-26T08:19:35.643Z,18.92
2022-11-26T08:20:35.650Z,18.73
2022-11-26T08:21:35.642Z,18.71
2022-11-26T08:22:35.650Z,18.81
2022-11-26T08:23:35.648Z,18.91
2022-11-26T08:24:36.088Z,18.71
2022-11-26T08:25:35.907Z,18.82
2022-11-26T08:26:42.410Z,18.91
2022-11-26T08:27:35.640Z,18.81
2022-11-26T08:28:35.646Z,18.82
2022-11-26T08:29:35.653Z,18.81
2022-11-26T08:30:35.640Z,18.81
2022-11-26T08:31:35.823Z,18.81
2022-11-26T08:32:35.639Z,18.81
2022-11-26T08:33:35.646Z,18.81
2022-11-26T08:34:36.117Z,18.81
2022-11-26T08:36:05.032Z,18.82
2022-11-26T08:36:35.636Z,18.82
2022-11-26T08:37:35.655Z,18.81
2022-11-26T08:38:35.642Z,18.81
2022-11-26T08:39:35.643Z,18.73
2022-11-26T08:40:35.657Z,18.71
2022-11-26T08:41:35.643Z,18.71
2022-11-26T08:42:35.634Z,18.62
2022-11-26T08:44:04.595Z,18.71
2022-11-26T08:44:35.689Z,18.71
2022-11-26T08:45:35.642Z,18.73
2022-11-26T08:46:35.740Z,18.62
2022-11-26T08:47:35.642Z,18.73
2022-11-26T08:48:35.633Z,18.71
2022-11-26T08:49:35.639Z,18.73
2022-11-26T08:50:35.631Z,18.71
2022-11-26T08:51:35.640Z,18.71
2022-11-26T08:52:35.634Z,18.82
2022-11-26T08:53:35.637Z,18.81
2022-11-26T08:54:35.921Z,18.73
2022-11-26T08:55:58.795Z,18.81
2022-11-26T08:56:35.656Z,18.73
2022-11-26T08:57:35.640Z,18.71
2022-11-26T08:58:35.628Z,18.62
2022-11-26T08:59:35.635Z,18.71
2022-11-26T09:00:35.631Z,18.71
2022-11-26T09:01:35.735Z,18.81
2022-11-26T09:02:35.659Z,18.73
2022-11-26T09:03:35.634Z,18.81
2022-11-26T09:04:35.634Z,18.92
2022-11-26T09:05:35.633Z,18.73
2022-11-26T09:06:35.625Z,18.73
2022-11-26T09:07:35.738Z,18.81
2022-11-26T09:08:35.624Z,18.81
2022-11-26T09:09:35.641Z,18.82
2022-11-26T09:10:35.623Z,18.71
2022-11-26T09:11:35.632Z,18.73
2022-11-26T09:12:35.647Z,18.71
2022-11-26T09:13:35.630Z,18.71
2022-11-26T09:14:35.685Z,18.92
2022-11-26T09:15:35.630Z,18.81
2022-11-26T09:16:35.669Z,18.82
2022-11-26T09:17:35.631Z,18.82
2022-11-26T09:18:35.621Z,19.01
2022-11-26T09:19:35.627Z,18.92
2022-11-26T09:20:35.620Z,18.73
2022-11-26T09:21:35.634Z,18.92
2022-11-26T09:22:35.619Z,18.73
2022-11-26T09:23:35.625Z,18.81
2022-11-26T09:24:35.743Z,18.91
2022-11-26T09:25:35.625Z,18.92
2022-11-26T09:26:35.622Z,18.91
2022-11-26T09:27:35.626Z,18.91
2022-11-26T09:28:35.652Z,18.71
2022-11-26T09:29:35.624Z,18.81
2022-11-26T09:30:35.617Z,18.92
2022-11-26T09:31:35.649Z,18.92
2022-11-26T09:32:35.730Z,19.02
2022-11-26T09:33:35.622Z,18.73
2022-11-26T09:34:35.658Z,18.81
2022-11-26T09:35:35.638Z,18.81
2022-11-26T09:36:35.613Z,18.81
2022-11-26T09:37:35.621Z,18.82
2022-11-26T09:38:35.613Z,18.82
2022-11-26T09:39:35.619Z,19.02
2022-11-26T09:40:35.612Z,18.73
2022-11-26T09:41:35.630Z,19.02
2022-11-26T09:42:35.612Z,18.92
2022-11-26T09:43:35.618Z,18.92
2022-11-26T09:44:35.654Z,18.81
2022-11-26T09:45:35.657Z,18.82
2022-11-26T09:46:45.437Z,19.02
2022-11-26T09:47:35.617Z,18.92
2022-11-26T09:48:35.609Z,18.92
2022-11-26T09:49:35.617Z,18.91
2022-11-26T09:50:35.610Z,18.82
2022-11-26T09:51:35.619Z,19.02
2022-11-26T09:52:35.608Z,18.92
2022-11-26T09:53:35.615Z,18.82
2022-11-26T09:54:35.709Z,18.91
2022-11-26T09:55:35.614Z,18.91
2022-11-26T09:56:35.607Z,19.01
2022-11-26T09:57:35.613Z,19.01
2022-11-26T09:58:35.606Z,19.02
2022-11-26T09:59:35.613Z,19.01
2022-11-26T10:00:35.628Z,19.02
2022-11-26T10:01:35.763Z,19.01
2022-11-26T10:02:35.639Z,19.01
2022-11-26T10:03:35.612Z,19.02
2022-11-26T10:04:35.662Z,19.02
2022-11-26T10:05:35.612Z,18.91
2022-11-26T10:06:35.604Z,18.92
2022-11-26T10:07:35.705Z,18.92
2022-11-26T10:08:35.601Z,19.02
2022-11-26T10:09:35.610Z,19.02
2022-11-26T10:10:35.601Z,19.02
2022-11-26T10:11:35.609Z,19.02
2022-11-26T10:12:45.978Z,19.01
2022-11-26T10:13:35.607Z,19.02
2022-11-26T10:14:35.600Z,18.91
2022-11-26T10:15:35.606Z,18.92
2022-11-26T10:16:35.686Z,18.92
2022-11-26T10:17:35.606Z,19.01
2022-11-26T10:18:35.599Z,18.82
2022-11-26T10:19:35.605Z,19.02
2022-11-26T10:20:35.598Z,19.01
2022-11-26T10:21:57.756Z,19.02
2022-11-26T10:22:35.598Z,19.01
2022-11-26T10:23:35.604Z,18.91
2022-11-26T10:24:35.596Z,19.01
2022-11-26T10:25:35.606Z,19.02
2022-11-26T10:26:35.595Z,19.01
2022-11-26T10:27:35.602Z,18.92
2022-11-26T10:28:35.595Z,18.82
2022-11-26T10:29:35.603Z,18.91
2022-11-26T10:30:35.595Z,19.02
2022-11-26T10:31:35.824Z,18.73
2022-11-26T10:32:35.613Z,18.82
2022-11-26T10:33:35.601Z,18.92
2022-11-26T10:34:38.980Z,18.71
2022-11-26T10:35:35.600Z,18.92
2022-11-26T10:36:35.591Z,19.01
2022-11-26T10:37:35.599Z,18.92
2022-11-26T10:38:35.596Z,18.82
2022-11-26T10:39:35.598Z,18.92
2022-11-26T10:40:35.593Z,18.71
2022-11-26T10:41:35.599Z,18.91
2022-11-26T10:42:35.591Z,18.91
2022-11-26T10:43:35.596Z,18.63
2022-11-26T10:44:35.609Z,18.71
2022-11-26T10:45:35.597Z,18.71
2022-11-26T10:46:35.754Z,18.73
2022-11-26T10:47:35.595Z,18.91
2022-11-26T10:48:35.611Z,18.82
2022-11-26T10:49:35.597Z,18.71
2022-11-26T10:50:51.005Z,18.71
2022-11-26T10:51:35.593Z,18.92
2022-11-26T10:52:35.586Z,18.91
2022-11-26T10:53:35.592Z,18.71
2022-11-26T10:54:35.585Z,18.91
2022-11-26T10:55:35.592Z,18.73
2022-11-26T10:56:35.586Z,18.71
2022-11-26T10:57:35.591Z,18.92
2022-11-26T10:58:35.584Z,18.91
2022-11-26T10:59:35.595Z,18.91
2022-11-26T11:00:35.673Z,18.71
2022-11-26T11:01:35.590Z,18.91
2022-11-26T11:02:35.608Z,18.91
2022-11-26T11:04:06.623Z,18.71
2022-11-26T11:04:35.605Z,18.71
2022-11-26T11:05:35.591Z,18.92
2022-11-26T11:06:35.582Z,18.91
2022-11-26T11:07:35.690Z,18.71
2022-11-26T11:08:35.582Z,18.91
2022-11-26T11:09:35.599Z,18.81
2022-11-26T11:10:35.580Z,18.81
2022-11-26T11:11:35.585Z,18.91
2022-11-26T11:12:35.585Z,18.91
2022-11-26T11:13:35.585Z,18.91
2022-11-26T11:14:41.093Z,18.81
2022-11-26T11:15:35.613Z,18.82
2022-11-26T11:16:35.655Z,18.91
2022-11-26T11:17:35.586Z,18.71
2022-11-26T11:18:35.576Z,18.81
2022-11-26T11:19:35.583Z,18.81
2022-11-26T11:20:35.599Z,18.81
2022-11-26T11:21:35.589Z,19.01
2022-11-26T11:22:35.577Z,18.81
2022-11-26T11:24:06.380Z,18.81
2022-11-26T11:24:35.574Z,18.82
2022-11-26T11:25:35.584Z,18.81
2022-11-26T11:26:35.574Z,18.91
2022-11-26T11:27:35.579Z,18.71
2022-11-26T11:28:35.573Z,18.81
2022-11-26T11:29:35.579Z,18.91
2022-11-26T11:30:35.573Z,18.71
2022-11-26T11:31:35.622Z,18.71
2022-11-26T11:32:35.570Z,18.91
2022-11-26T11:33:35.580Z,18.91
2022-11-26T11:34:35.572Z,18.81
2022-11-26T11:35:35.576Z,19.01
2022-11-26T11:36:35.593Z,18.81
2022-11-26T11:37:35.577Z,18.71
2022-11-26T11:38:35.571Z,18.81
2022-11-26T11:39:35.575Z,18.82
2022-11-26T11:40:35.567Z,18.81
2022-11-26T11:41:35.575Z,18.71
2022-11-26T11:42:35.569Z,18.81
2022-11-26T11:43:35.575Z,18.71
2022-11-26T11:44:35.570Z,18.91
2022-11-26T11:45:35.630Z,18.71
2022-11-26T11:46:35.567Z,18.81
2022-11-26T11:47:35.574Z,18.73
2022-11-26T11:48:35.564Z,18.81
2022-11-26T11:49:35.575Z,18.81
2022-11-26T11:50:35.566Z,18.71
2022-11-26T11:51:35.570Z,18.71
2022-11-26T11:52:35.590Z,18.81
2022-11-26T11:53:35.570Z,18.73
2022-11-26T11:54:35.601Z,18.71
2022-11-26T11:55:35.569Z,18.81
2022-11-26T11:56:35.561Z,18.81
2022-11-26T11:57:35.582Z,18.81
2022-11-26T11:58:35.564Z,18.81
2022-11-26T11:59:35.567Z,18.71
2022-11-26T12:00:35.563Z,18.71
2022-11-26T12:01:35.625Z,18.71
2022-11-26T12:02:35.626Z,18.81
2022-11-26T12:03:35.566Z,18.71
2022-11-26T12:04:35.599Z,18.81
2022-11-26T12:05:35.565Z,18.81
2022-11-26T12:06:35.558Z,18.81
2022-11-26T12:07:35.648Z,18.81
2022-11-26T12:08:35.579Z,18.91
2022-11-26T12:09:35.565Z,18.91
2022-11-26T12:10:35.840Z,18.81
2022-11-26T12:11:35.565Z,18.71
2022-11-26T12:12:35.555Z,18.62
2022-11-26T12:13:35.563Z,18.71
2022-11-26T12:14:35.557Z,18.62
2022-11-26T12:15:35.562Z,18.52
2022-11-26T12:16:35.586Z,18.62
2022-11-26T12:17:35.560Z,18.52
2022-11-26T12:18:35.555Z,18.62
2022-11-26T12:19:35.571Z,18.52
2022-11-26T12:20:35.551Z,18.62
2022-11-26T12:21:35.564Z,18.62
2022-11-26T12:22:35.552Z,18.33
2022-11-26T12:23:35.559Z,18.52
2022-11-26T12:24:35.594Z,18.43
2022-11-26T12:25:37.256Z,18.43
2022-11-26T12:26:35.551Z,18.43
2022-11-26T12:27:35.561Z,18.71
2022-11-26T12:28:35.555Z,18.53
2022-11-26T12:29:35.558Z,18.33
2022-11-26T12:30:35.555Z,18.52
2022-11-26T12:31:35.627Z,18.52
2022-11-26T12:32:35.547Z,18.71
2022-11-26T12:33:35.556Z,18.52
2022-11-26T12:34:35.549Z,18.43
2022-11-26T12:35:35.556Z,18.43
2022-11-26T12:36:35.549Z,18.43
2022-11-26T12:37:35.558Z,18.43
2022-11-26T12:38:35.546Z,18.62
2022-11-26T12:39:35.554Z,18.52
2022-11-26T12:40:35.565Z,18.52
2022-11-26T12:41:35.551Z,18.62
2022-11-26T12:42:35.543Z,18.62
2022-11-26T12:43:35.552Z,18.71
2022-11-26T12:44:35.542Z,18.91
2022-11-26T12:45:35.595Z,18.81
2022-11-26T12:46:35.549Z,18.81
2022-11-26T12:47:35.555Z,18.81
2022-11-26T12:48:35.558Z,18.53
2022-11-26T12:49:35.540Z,18.33
2022-11-26T12:50:35.549Z,18.53
2022-11-26T12:51:35.541Z,18.53
2022-11-26T12:52:35.547Z,18.53